Terminal Aerodrome Forecast
Issued by NWS

Home | Current Version | Previous Version | Text Only | Print | Product List | Glossary On
Versions: 1 2 3 4 5 6 7 8 9 10 11 12
000
FTUS42 TJSJ 202300 RRA
TAFNCM
TAF
TNCM 202343Z 2100/2124 08012KT P6SM VCSH SCT020
     FM211100 06015KT P6SM VCTS SCT020CB
     FM212330 09012KT P6SM VCTS SCT022CB SCT040=

USA.gov is the U.S. government's official web portal to all federal, state and local government web resources and services.